Terminal Aerodrome Forecast
Issued by NWS Brownsville, TX

Home | Current Version | Previous Version | Text Only | Print | Product List | Glossary On
Versions: 1 2 3 4 5 6 7 8 9 10 11 12 13 14 15 16 17
000
FTUS44 KBRO 302320
TAFBRO
TAF
KBRO 302320Z 3100/3124 15016G22KT P6SM FEW035
     FM310100 14012G20KT P6SM FEW035
     FM310300 14008KT P6SM SKC
     FM310900 15004KT P6SM SKC
     FM311500 16015G22KT P6SM SCT030=

USA.gov is the U.S. government's official web portal to all federal, state and local government web resources and services.